Terminal Aerodrome Forecast
Issued by NWS

Home | Current Version | Previous Version | Graphics & Text | Print | Product List | Glossary On
Versions: 1 2 3 4 5 6 7 8 9 10 11 12 13 14 15 16 17 18 19 20 21 22
000
FTUS43 KABR 242000 AAA
TAFATY
TAF AMD
KATY 242006Z 2420/2518 33020G28KT P6SM -SHSN BKN020
      TEMPO 2420/2422 4SM -SHSN SCT020
     FM242200 33017G25KT P6SM SCT025
     FM250300 29007KT P6SM BKN150
     FM251200 20005KT P6SM OVC030=

USA.gov is the U.S. government's official web portal to all federal, state and local government web resources and services.